createdAt,value
2018-08-10T00:00:54.364Z,21.75
2018-08-10T00:01:54.391Z,21.72
2018-08-10T00:02:54.406Z,21.62
2018-08-10T00:03:54.428Z,21.73
2018-08-10T00:04:54.448Z,21.57
2018-08-10T00:05:54.502Z,21.48
2018-08-10T00:06:54.491Z,21.43
2018-08-10T00:07:54.517Z,21.46
2018-08-10T00:08:54.547Z,21.42
2018-08-10T00:09:54.563Z,21.48
2018-08-10T00:10:54.582Z,21.45
2018-08-10T00:11:54.601Z,21.32
2018-08-10T00:12:54.620Z,21.46
2018-08-10T00:13:54.683Z,21.39
2018-08-10T00:14:54.670Z,21.51
2018-08-10T00:15:54.689Z,21.37
2018-08-10T00:16:54.725Z,21.36
2018-08-10T00:17:54.727Z,21.42
2018-08-10T00:18:54.749Z,21.37
2018-08-10T00:19:54.771Z,21.36
2018-08-10T00:20:54.793Z,21.46
2018-08-10T00:21:54.815Z,21.27
2018-08-10T00:22:54.833Z,21.27
2018-08-10T00:23:54.853Z,21.37
2018-08-10T00:24:54.874Z,21.39
2018-08-10T00:25:54.897Z,21.14
2018-08-10T00:26:54.918Z,21.39
2018-08-10T00:27:54.940Z,21.42
2018-08-10T00:28:54.963Z,21.18
2018-08-10T00:29:54.981Z,21.17
2018-08-10T00:30:55.008Z,21.09
2018-08-10T00:31:55.028Z,21.05
2018-08-10T00:32:55.046Z,21.12
2018-08-10T00:33:55.066Z,21.11
2018-08-10T00:34:55.088Z,21.12
2018-08-10T00:35:55.230Z,21.22
2018-08-10T00:36:55.130Z,21.12
2018-08-10T00:37:55.150Z,20.92
2018-08-10T00:38:55.175Z,20.80
2018-08-10T00:39:55.192Z,20.87
2018-08-10T00:40:55.214Z,20.72
2018-08-10T00:41:55.241Z,20.80
2018-08-10T00:42:55.260Z,20.67
2018-08-10T00:43:55.275Z,20.70
2018-08-10T00:44:55.299Z,20.72
2018-08-10T00:45:55.321Z,20.82
2018-08-10T00:46:55.342Z,20.87
2018-08-10T00:47:55.365Z,20.93
2018-08-10T00:48:55.382Z,20.95
2018-08-10T00:49:55.405Z,20.96
2018-08-10T00:50:55.427Z,20.93
2018-08-10T00:51:55.447Z,20.67
2018-08-10T00:52:55.468Z,20.70
2018-08-10T00:53:55.488Z,20.84
2018-08-10T00:54:55.509Z,20.87
2018-08-10T00:55:55.540Z,20.84
2018-08-10T00:56:55.553Z,20.97
2018-08-10T00:57:55.573Z,20.92
2018-08-10T00:58:55.593Z,20.75
2018-08-10T00:59:55.619Z,20.77
2018-08-10T01:00:55.635Z,20.74
2018-08-10T01:01:55.656Z,20.60
2018-08-10T01:02:55.679Z,20.63
2018-08-10T01:03:55.700Z,20.72
2018-08-10T01:04:55.720Z,20.60
2018-08-10T01:05:55.741Z,20.40
2018-08-10T01:06:55.764Z,20.43
2018-08-10T01:07:55.781Z,20.44
2018-08-10T01:08:55.846Z,20.43
2018-08-10T01:09:55.827Z,20.63
2018-08-10T01:10:55.846Z,20.72
2018-08-10T01:11:55.869Z,20.75
2018-08-10T01:12:55.888Z,20.47
2018-08-10T01:13:55.912Z,20.37
2018-08-10T01:14:55.932Z,20.41
2018-08-10T01:15:55.949Z,20.41
2018-08-10T01:16:55.976Z,20.39
2018-08-10T01:17:55.993Z,20.11
2018-08-10T01:18:56.015Z,20.18
2018-08-10T01:19:56.037Z,20.04
2018-08-10T01:20:56.065Z,20.04
2018-08-10T01:21:56.078Z,20.19
2018-08-10T01:22:56.098Z,20.09
2018-08-10T01:23:56.123Z,19.95
2018-08-10T01:24:56.143Z,19.89
2018-08-10T01:25:56.163Z,20.00
2018-08-10T01:26:56.181Z,20.02
2018-08-10T01:27:56.262Z,19.91
2018-08-10T01:28:56.332Z,19.96
2018-08-10T01:29:56.263Z,19.85
2018-08-10T01:30:56.272Z,19.81
2018-08-10T01:31:56.285Z,19.81
2018-08-10T01:32:56.304Z,19.63
2018-08-10T01:33:56.324Z,19.62
2018-08-10T01:34:56.350Z,19.48
2018-08-10T01:35:56.368Z,19.66
2018-08-10T01:36:56.389Z,19.52
2018-08-10T01:37:56.415Z,19.41
2018-08-10T01:38:56.436Z,19.44
2018-08-10T01:39:56.451Z,19.24
2018-08-10T01:40:56.473Z,19.48
2018-08-10T01:41:56.490Z,19.33
2018-08-10T01:42:56.516Z,19.37
2018-08-10T01:43:56.533Z,19.24
2018-08-10T01:44:56.561Z,19.37
2018-08-10T01:45:56.797Z,19.39
2018-08-10T01:46:56.594Z,19.29
2018-08-10T01:47:56.621Z,19.51
2018-08-10T01:48:56.637Z,19.44
2018-08-10T01:49:56.656Z,19.16
2018-08-10T01:50:56.678Z,19.27
2018-08-10T01:51:56.700Z,19.49
2018-08-10T01:52:56.730Z,19.45
2018-08-10T01:53:56.738Z,19.18
2018-08-10T01:54:56.761Z,19.14
2018-08-10T01:55:56.780Z,19.14
2018-08-10T01:56:56.800Z,19.15
2018-08-10T01:57:56.821Z,19.16
2018-08-10T01:58:56.843Z,19.21
2018-08-10T01:59:56.863Z,19.21
2018-08-10T02:00:56.883Z,19.30
2018-08-10T02:01:56.900Z,19.30
2018-08-10T02:02:56.922Z,19.26
2018-08-10T02:03:56.941Z,19.37
2018-08-10T02:04:56.965Z,19.34
2018-08-10T02:05:56.983Z,19.56
2018-08-10T02:06:57.004Z,19.56
2018-08-10T02:07:57.024Z,19.34
2018-08-10T02:08:57.047Z,19.34
2018-08-10T02:09:57.067Z,19.36
2018-08-10T02:10:57.116Z,19.29
2018-08-10T02:11:57.109Z,19.56
2018-08-10T02:12:57.128Z,19.30
2018-08-10T02:13:57.152Z,19.16
2018-08-10T02:14:57.296Z,19.08
2018-08-10T02:15:57.187Z,19.11
2018-08-10T02:16:57.207Z,18.99
2018-08-10T02:17:57.229Z,19.11
2018-08-10T02:18:57.255Z,19.02
2018-08-10T02:19:57.268Z,19.04
2018-08-10T02:20:57.298Z,19.02
2018-08-10T02:21:57.309Z,19.00
2018-08-10T02:22:57.332Z,18.71
2018-08-10T02:23:57.356Z,18.70
2018-08-10T02:24:57.372Z,18.70
2018-08-10T02:25:57.406Z,18.60
2018-08-10T02:26:57.413Z,18.66
2018-08-10T02:27:57.435Z,18.66
2018-08-10T02:28:57.455Z,18.74
2018-08-10T02:29:57.472Z,18.83
2018-08-10T02:30:57.500Z,18.81
2018-08-10T02:31:57.513Z,18.65
2018-08-10T02:32:57.533Z,18.47
2018-08-10T02:33:57.555Z,18.40
2018-08-10T02:34:57.576Z,18.52
2018-08-10T02:35:57.616Z,18.40
2018-08-10T02:36:57.616Z,18.33
2018-08-10T02:37:57.635Z,18.31
2018-08-10T02:38:57.656Z,18.40
2018-08-10T02:39:57.680Z,18.45
2018-08-10T02:40:57.700Z,18.45
2018-08-10T02:41:57.719Z,18.45
2018-08-10T02:42:57.735Z,18.34
2018-08-10T02:43:57.755Z,18.56
2018-08-10T02:44:57.779Z,18.45
2018-08-10T02:45:57.799Z,18.41
2018-08-10T02:46:57.817Z,18.29
2018-08-10T02:47:57.848Z,18.33
2018-08-10T02:48:57.855Z,18.34
2018-08-10T02:49:57.878Z,18.33
2018-08-10T02:50:57.895Z,18.28
2018-08-10T02:51:57.921Z,18.26
2018-08-10T02:52:57.943Z,18.38
2018-08-10T02:53:57.958Z,18.29
2018-08-10T02:54:57.977Z,18.34
2018-08-10T02:55:57.995Z,18.33
2018-08-10T02:56:58.015Z,18.29
2018-08-10T02:57:58.039Z,18.23
2018-08-10T02:58:58.057Z,18.40
2018-08-10T02:59:58.076Z,18.25
2018-08-10T03:00:58.094Z,18.15
2018-08-10T03:01:58.114Z,18.33
2018-08-10T03:02:58.136Z,18.35
2018-08-10T03:03:58.159Z,18.31
2018-08-10T03:04:58.180Z,18.05
2018-08-10T03:05:58.201Z,18.08
2018-08-10T03:06:58.222Z,18.16
2018-08-10T03:07:58.239Z,18.31
2018-08-10T03:08:58.277Z,18.26
2018-08-10T03:09:58.279Z,18.34
2018-08-10T03:10:58.296Z,18.19
2018-08-10T03:11:58.317Z,18.31
2018-08-10T03:12:58.336Z,18.11
2018-08-10T03:13:58.355Z,18.03
2018-08-10T03:14:58.375Z,18.00
2018-08-10T03:15:58.398Z,18.07
2018-08-10T03:16:58.417Z,18.16
2018-08-10T03:17:58.437Z,18.00
2018-08-10T03:18:58.465Z,17.97
2018-08-10T03:19:58.475Z,18.00
2018-08-10T03:20:58.491Z,18.15
2018-08-10T03:21:58.586Z,18.20
2018-08-10T03:22:58.534Z,18.13
2018-08-10T03:23:58.556Z,18.03
2018-08-10T03:24:58.572Z,18.01
2018-08-10T03:25:58.592Z,17.98
2018-08-10T03:26:58.612Z,18.05
2018-08-10T03:27:58.635Z,17.92
2018-08-10T03:28:58.668Z,17.94
2018-08-10T03:29:58.687Z,17.98
2018-08-10T03:30:58.695Z,17.94
2018-08-10T03:31:58.713Z,17.92
2018-08-10T03:32:58.734Z,18.07
2018-08-10T03:33:58.751Z,18.10
2018-08-10T03:34:58.772Z,18.19
2018-08-10T03:35:58.793Z,18.00
2018-08-10T03:36:58.810Z,18.15
2018-08-10T03:37:58.829Z,18.11
2018-08-10T03:38:58.848Z,18.03
2018-08-10T03:39:58.873Z,18.07
2018-08-10T03:40:58.890Z,18.18
2018-08-10T03:41:58.912Z,18.13
2018-08-10T03:42:58.929Z,18.13
2018-08-10T03:43:58.985Z,18.20
2018-08-10T03:44:58.969Z,18.28
2018-08-10T03:45:58.987Z,18.20
2018-08-10T03:46:59.011Z,18.16
2018-08-10T03:47:59.031Z,18.16
2018-08-10T03:48:59.047Z,18.19
2018-08-10T03:49:59.068Z,18.13
2018-08-10T03:50:59.090Z,18.00
2018-08-10T03:51:59.112Z,18.00
2018-08-10T03:52:59.137Z,18.03
2018-08-10T03:53:59.151Z,18.10
2018-08-10T03:54:59.169Z,18.11
2018-08-10T03:55:59.189Z,18.18
2018-08-10T03:56:59.208Z,18.26
2018-08-10T03:57:59.229Z,18.19
2018-08-10T03:58:59.247Z,18.19
2018-08-10T03:59:59.269Z,18.26
2018-08-10T04:00:59.289Z,18.23
2018-08-10T04:01:59.311Z,18.35
2018-08-10T04:02:59.328Z,18.20
2018-08-10T04:03:59.348Z,18.33
2018-08-10T04:04:59.367Z,18.45
2018-08-10T04:05:59.420Z,18.52
2018-08-10T04:06:59.408Z,18.40
2018-08-10T04:07:59.428Z,18.34
2018-08-10T04:08:59.450Z,18.15
2018-08-10T04:09:59.465Z,18.38
2018-08-10T04:10:59.487Z,18.28
2018-08-10T04:11:59.508Z,18.49
2018-08-10T04:12:59.528Z,18.58
2018-08-10T04:13:59.547Z,18.81
2018-08-10T04:14:59.569Z,18.84
2018-08-10T04:15:59.590Z,18.74
2018-08-10T04:16:59.606Z,18.80
2018-08-10T04:17:59.626Z,18.74
2018-08-10T04:18:59.648Z,18.81
2018-08-10T04:19:59.671Z,18.56
2018-08-10T04:20:59.689Z,18.41
2018-08-10T04:21:59.710Z,18.56
2018-08-10T04:22:59.734Z,18.60
2018-08-10T04:23:59.752Z,18.50
2018-08-10T04:24:59.768Z,18.29
2018-08-10T04:25:59.785Z,18.25
2018-08-10T04:26:59.809Z,18.26
2018-08-10T04:27:59.829Z,18.45
2018-08-10T04:28:59.847Z,18.56
2018-08-10T04:29:59.868Z,18.53
2018-08-10T04:30:59.898Z,18.60
2018-08-10T04:32:00.045Z,18.41
2018-08-10T04:32:59.929Z,18.58
2018-08-10T04:33:59.948Z,18.53
2018-08-10T04:34:59.969Z,18.65
2018-08-10T04:35:59.987Z,18.43
2018-08-10T04:37:00.010Z,18.45
2018-08-10T04:38:00.032Z,18.50
2018-08-10T04:39:00.052Z,18.45
2018-08-10T04:40:00.069Z,18.59
2018-08-10T04:41:00.092Z,18.53
2018-08-10T04:42:00.112Z,18.58
2018-08-10T04:43:00.131Z,18.62
2018-08-10T04:44:00.152Z,18.70
2018-08-10T04:45:00.171Z,18.65
2018-08-10T04:46:00.186Z,18.81
2018-08-10T04:47:00.219Z,18.71
2018-08-10T04:48:00.230Z,18.95
2018-08-10T04:49:00.251Z,19.08
2018-08-10T04:50:00.278Z,18.95
2018-08-10T04:51:00.310Z,18.99
2018-08-10T04:52:00.312Z,19.18
2018-08-10T04:53:00.332Z,19.02
2018-08-10T04:54:00.361Z,19.12
2018-08-10T04:55:00.397Z,18.99
2018-08-10T04:56:00.392Z,19.14
2018-08-10T04:57:00.410Z,19.27
2018-08-10T04:58:00.445Z,19.37
2018-08-10T04:59:00.452Z,19.63
2018-08-10T05:00:00.473Z,19.64
2018-08-10T05:01:00.500Z,19.47
2018-08-10T05:02:00.518Z,19.58
2018-08-10T05:03:00.535Z,19.85
2018-08-10T05:04:00.556Z,19.82
2018-08-10T05:05:00.576Z,19.89
2018-08-10T05:06:00.597Z,19.64
2018-08-10T05:07:00.623Z,19.18
2018-08-10T05:08:00.646Z,19.49
2018-08-10T05:09:00.663Z,19.64
2018-08-10T05:10:00.758Z,19.55
2018-08-10T05:11:00.700Z,19.82
2018-08-10T05:12:00.730Z,19.48
2018-08-10T05:13:00.744Z,19.63
2018-08-10T05:14:00.762Z,20.10
2018-08-10T05:15:00.787Z,20.22
2018-08-10T05:16:00.806Z,20.21
2018-08-10T05:17:00.861Z,20.28
2018-08-10T05:18:00.849Z,20.58
2018-08-10T05:19:00.878Z,20.66
2018-08-10T05:20:00.889Z,20.99
2018-08-10T05:21:00.909Z,21.05
2018-08-10T05:22:00.936Z,21.30
2018-08-10T05:23:00.954Z,21.83
2018-08-10T05:24:00.973Z,21.36
2018-08-10T05:25:00.998Z,21.22
2018-08-10T05:26:01.039Z,21.54
2018-08-10T05:27:01.062Z,21.69
2018-08-10T05:28:01.067Z,21.22
2018-08-10T05:29:01.086Z,21.24
2018-08-10T05:30:01.107Z,21.24
2018-08-10T05:31:01.144Z,21.18
2018-08-10T05:32:01.151Z,20.78
2018-08-10T05:33:01.205Z,20.40
2018-08-10T05:34:01.197Z,20.19
2018-08-10T05:35:01.220Z,20.36
2018-08-10T05:36:01.241Z,20.60
2018-08-10T05:37:01.258Z,20.70
2018-08-10T05:38:01.286Z,20.88
2018-08-10T05:39:01.335Z,20.32
2018-08-10T05:40:01.327Z,20.48
2018-08-10T05:41:01.358Z,20.84
2018-08-10T05:42:01.372Z,21.03
2018-08-10T05:43:01.394Z,21.06
2018-08-10T05:44:01.453Z,22.06
2018-08-10T05:45:01.437Z,22.44
2018-08-10T05:46:01.457Z,23.00
2018-08-10T05:47:01.529Z,23.28
2018-08-10T05:48:01.519Z,23.46
2018-08-10T05:49:01.527Z,23.99
2018-08-10T05:50:01.551Z,24.02
2018-08-10T05:51:01.660Z,23.47
2018-08-10T05:52:01.596Z,22.44
2018-08-10T05:53:01.632Z,21.99
2018-08-10T05:54:01.645Z,21.95
2018-08-10T05:55:01.664Z,22.02
2018-08-10T05:56:01.691Z,22.72
2018-08-10T05:57:01.713Z,23.37
2018-08-10T05:58:01.759Z,23.69
2018-08-10T05:59:01.771Z,23.96
2018-08-10T06:00:01.786Z,23.83
2018-08-10T06:01:01.814Z,24.21
2018-08-10T06:02:01.854Z,24.30
2018-08-10T06:03:01.858Z,24.03
2018-08-10T06:04:01.981Z,23.58
2018-08-10T06:05:01.908Z,23.74
2018-08-10T06:06:01.937Z,23.58
2018-08-10T06:07:01.964Z,24.02
2018-08-10T06:08:01.988Z,24.68
2018-08-10T06:09:02.013Z,24.68
2018-08-10T06:10:02.135Z,24.57
2018-08-10T06:11:02.057Z,23.83
2018-08-10T06:12:02.083Z,23.84
2018-08-10T06:13:02.110Z,24.02
2018-08-10T06:14:02.128Z,25.04
2018-08-10T06:15:02.156Z,24.47
2018-08-10T06:16:02.182Z,24.08
2018-08-10T06:17:02.204Z,23.05
2018-08-10T06:18:02.231Z,23.00
2018-08-10T06:19:02.252Z,22.60
2018-08-10T06:20:02.330Z,22.18
2018-08-10T06:21:02.304Z,21.82
2018-08-10T06:22:02.339Z,22.06
2018-08-10T06:23:02.358Z,21.92
2018-08-10T06:24:02.383Z,22.30
2018-08-10T06:25:02.421Z,22.88
2018-08-10T06:26:02.425Z,22.44
2018-08-10T06:27:02.446Z,22.38
2018-08-10T06:28:02.469Z,22.45
2018-08-10T06:29:02.495Z,22.45
2018-08-10T06:30:02.520Z,21.99
2018-08-10T06:31:02.542Z,21.80
2018-08-10T06:32:02.570Z,21.96
2018-08-10T06:33:02.586Z,21.67
2018-08-10T06:34:02.749Z,21.83
2018-08-10T06:35:02.701Z,22.02
2018-08-10T06:36:02.656Z,21.54
2018-08-10T06:37:02.677Z,20.69
2018-08-10T06:38:02.705Z,20.58
2018-08-10T06:39:02.728Z,20.70
2018-08-10T06:40:02.748Z,20.72
2018-08-10T06:41:02.770Z,20.70
2018-08-10T06:42:02.792Z,20.85
2018-08-10T06:43:02.816Z,20.63
2018-08-10T06:44:02.854Z,20.69
2018-08-10T06:45:03.020Z,20.40
2018-08-10T06:46:02.879Z,20.41
2018-08-10T06:47:02.929Z,20.36
2018-08-10T06:48:02.927Z,20.75
2018-08-10T06:49:02.947Z,20.41
2018-08-10T06:50:02.991Z,20.66
2018-08-10T06:51:03.046Z,20.75
2018-08-10T06:52:03.031Z,20.43
2018-08-10T06:53:03.169Z,20.39
2018-08-10T06:54:03.060Z,20.55
2018-08-10T06:55:03.608Z,20.56
2018-08-10T06:56:03.122Z,20.80
2018-08-10T06:57:03.145Z,20.96
2018-08-10T06:58:03.148Z,20.88
2018-08-10T06:59:03.165Z,20.74
2018-08-10T07:00:03.227Z,20.70
2018-08-10T07:01:03.244Z,20.97
2018-08-10T07:02:03.234Z,20.96
2018-08-10T07:03:03.254Z,21.02
2018-08-10T07:04:03.274Z,21.32
2018-08-10T07:05:03.292Z,21.37
2018-08-10T07:06:03.344Z,21.30
2018-08-10T07:07:03.341Z,21.75
2018-08-10T07:08:03.367Z,21.50
2018-08-10T07:09:03.385Z,21.89
2018-08-10T07:10:03.415Z,23.06
2018-08-10T07:11:03.474Z,22.90
2018-08-10T07:12:03.449Z,23.96
2018-08-10T07:13:03.558Z,24.60
2018-08-10T07:14:03.497Z,25.62
2018-08-10T07:15:03.525Z,25.85
2018-08-10T07:16:03.541Z,26.66
2018-08-10T07:17:03.566Z,27.39
2018-08-10T07:18:03.589Z,27.47
2018-08-10T07:19:03.616Z,27.14
2018-08-10T07:20:03.646Z,27.39
2018-08-10T07:21:03.665Z,27.05
2018-08-10T07:22:03.697Z,26.83
2018-08-10T07:23:03.716Z,27.22
2018-08-10T07:24:03.738Z,26.92
2018-08-10T07:25:03.761Z,26.68
2018-08-10T07:26:03.789Z,26.31
2018-08-10T07:27:03.825Z,24.89
2018-08-10T07:28:03.842Z,24.47
2018-08-10T07:29:03.863Z,24.10
2018-08-10T07:30:03.890Z,23.50
2018-08-10T07:31:04.046Z,23.51
2018-08-10T07:32:03.939Z,23.95
2018-08-10T07:33:03.969Z,23.69
2018-08-10T07:34:04.011Z,23.61
2018-08-10T07:35:04.011Z,23.66
2018-08-10T07:36:04.060Z,23.93
2018-08-10T07:37:04.062Z,23.96
2018-08-10T07:38:04.083Z,24.24
2018-08-10T07:39:04.109Z,24.06
2018-08-10T07:40:04.140Z,24.16
2018-08-10T07:41:04.168Z,23.93
2018-08-10T07:42:04.185Z,23.98
2018-08-10T07:43:04.341Z,23.62
2018-08-10T07:44:04.229Z,23.41
2018-08-10T07:45:04.250Z,23.34
2018-08-10T07:46:04.273Z,23.10
2018-08-10T07:47:04.298Z,23.12
2018-08-10T07:48:04.324Z,23.73
2018-08-10T07:49:04.346Z,25.07
2018-08-10T07:50:04.368Z,25.41
2018-08-10T07:51:04.392Z,25.54
2018-08-10T07:52:04.429Z,26.21
2018-08-10T07:53:04.443Z,26.33
2018-08-10T07:54:04.468Z,26.99
2018-08-10T07:55:04.488Z,28.11
2018-08-10T07:56:04.516Z,28.27
2018-08-10T07:57:04.540Z,27.36
2018-08-10T07:58:04.565Z,26.92
2018-08-10T07:59:04.654Z,26.19
2018-08-10T08:00:04.644Z,25.63
2018-08-10T08:01:04.639Z,25.51
2018-08-10T08:02:04.666Z,25.38
2018-08-10T08:03:04.738Z,25.07
2018-08-10T08:04:04.719Z,24.99
2018-08-10T08:05:04.742Z,25.38
2018-08-10T08:06:04.772Z,25.73
2018-08-10T08:07:04.844Z,25.75
2018-08-10T08:08:04.819Z,26.05
2018-08-10T08:09:04.844Z,26.55
2018-08-10T08:10:04.886Z,26.89
2018-08-10T08:11:04.901Z,27.26
2018-08-10T08:12:04.959Z,27.12
2018-08-10T08:13:04.944Z,28.35
2018-08-10T08:14:04.967Z,28.26
2018-08-10T08:15:04.998Z,28.14
2018-08-10T08:16:05.024Z,27.39
2018-08-10T08:17:05.045Z,27.54
2018-08-10T08:18:05.153Z,27.48
2018-08-10T08:19:05.104Z,28.08
2018-08-10T08:20:05.127Z,28.41
2018-08-10T08:21:05.148Z,28.07
2018-08-10T08:22:05.177Z,28.12
2018-08-10T08:23:05.204Z,28.66
2018-08-10T08:24:05.227Z,28.14
2018-08-10T08:25:05.253Z,28.52
2018-08-10T08:26:05.315Z,28.44
2018-08-10T08:27:05.322Z,28.45
2018-08-10T08:28:05.332Z,27.77
2018-08-10T08:29:05.363Z,27.60
2018-08-10T08:30:05.383Z,27.18
2018-08-10T08:31:05.407Z,27.35
2018-08-10T08:32:05.435Z,27.25
2018-08-10T08:33:05.472Z,27.39
2018-08-10T08:34:05.484Z,28.12
2018-08-10T08:35:05.584Z,28.45
2018-08-10T08:36:05.540Z,28.89
2018-08-10T08:37:05.565Z,28.59
2018-08-10T08:38:05.590Z,28.26
2018-08-10T08:39:05.627Z,27.89
2018-08-10T08:40:05.640Z,27.55
2018-08-10T08:41:05.726Z,27.35
2018-08-10T08:42:05.690Z,26.93
2018-08-10T08:43:05.715Z,26.52
2018-08-10T08:44:05.738Z,25.93
2018-08-10T08:45:05.763Z,25.60
2018-08-10T08:46:06.015Z,25.36
2018-08-10T08:47:05.815Z,25.33
2018-08-10T08:48:05.837Z,25.28
2018-08-10T08:49:05.863Z,25.38
2018-08-10T08:50:05.927Z,25.16
2018-08-10T08:51:05.910Z,25.48
2018-08-10T08:52:05.935Z,25.44
2018-08-10T08:53:05.958Z,25.63
2018-08-10T08:54:05.990Z,25.62
2018-08-10T08:55:06.008Z,25.65
2018-08-10T08:56:06.028Z,25.22
2018-08-10T08:57:06.067Z,25.16
2018-08-10T08:58:06.078Z,24.96
2018-08-10T08:59:06.103Z,24.55
2018-08-10T09:00:06.126Z,25.06
2018-08-10T09:01:06.151Z,25.31
2018-08-10T09:02:06.187Z,25.48
2018-08-10T09:03:06.199Z,25.38
2018-08-10T09:04:06.221Z,25.06
2018-08-10T09:05:06.249Z,25.58
2018-08-10T09:06:06.266Z,25.51
2018-08-10T09:07:06.293Z,25.66
2018-08-10T09:08:06.315Z,25.53
2018-08-10T09:09:06.342Z,25.46
2018-08-10T09:10:06.444Z,25.63
2018-08-10T09:11:06.389Z,25.90
2018-08-10T09:12:06.414Z,26.40
2018-08-10T09:13:06.434Z,25.72
2018-08-10T09:14:06.460Z,25.91
2018-08-10T09:15:06.485Z,26.31
2018-08-10T09:16:06.507Z,26.83
2018-08-10T09:17:06.582Z,26.34
2018-08-10T09:18:06.555Z,26.41
2018-08-10T09:19:06.582Z,26.59
2018-08-10T09:20:06.616Z,26.34
2018-08-10T09:21:06.627Z,26.55
2018-08-10T09:22:06.650Z,26.62
2018-08-10T09:23:06.675Z,26.62
2018-08-10T09:24:06.701Z,26.68
2018-08-10T09:25:06.722Z,26.63
2018-08-10T09:26:06.745Z,26.93
2018-08-10T09:27:06.773Z,26.71
2018-08-10T09:28:06.797Z,26.18
2018-08-10T09:29:06.819Z,26.60
2018-08-10T09:30:06.840Z,26.65
2018-08-10T09:31:06.863Z,26.92
2018-08-10T09:32:06.890Z,27.12
2018-08-10T09:33:06.912Z,27.40
2018-08-10T09:34:06.936Z,27.70
2018-08-10T09:35:06.960Z,27.49
2018-08-10T09:36:06.986Z,27.15
2018-08-10T09:37:07.010Z,26.90
2018-08-10T09:38:07.030Z,26.80
2018-08-10T09:39:07.057Z,27.07
2018-08-10T09:40:07.083Z,26.62
2018-08-10T09:41:07.107Z,26.66
2018-08-10T09:42:07.147Z,26.23
2018-08-10T09:43:07.153Z,26.33
2018-08-10T09:44:07.215Z,26.65
2018-08-10T09:45:07.200Z,26.81
2018-08-10T09:46:07.226Z,26.70
2018-08-10T09:47:07.251Z,26.92
2018-08-10T09:48:07.278Z,26.74
2018-08-10T09:49:07.307Z,25.93
2018-08-10T09:50:07.324Z,25.77
2018-08-10T09:51:07.349Z,25.96
2018-08-10T09:52:07.406Z,26.02
2018-08-10T09:53:07.397Z,26.19
2018-08-10T09:54:07.420Z,26.31
2018-08-10T09:55:07.440Z,26.02
2018-08-10T09:56:07.471Z,26.25
2018-08-10T09:57:07.498Z,26.06
2018-08-10T09:58:07.516Z,26.41
2018-08-10T09:59:07.538Z,26.52
2018-08-10T10:00:07.562Z,26.59
2018-08-10T10:01:07.586Z,26.55
2018-08-10T10:02:07.612Z,25.90
2018-08-10T10:03:07.637Z,26.25
2018-08-10T10:04:07.665Z,26.22
2018-08-10T10:05:07.680Z,25.96
2018-08-10T10:06:07.730Z,25.70
2018-08-10T10:07:07.734Z,25.84
2018-08-10T10:08:07.754Z,26.25
2018-08-10T10:09:07.850Z,26.05
2018-08-10T10:10:07.801Z,25.75
2018-08-10T10:11:07.826Z,25.58
2018-08-10T10:12:07.848Z,25.85
2018-08-10T10:13:07.874Z,25.91
2018-08-10T10:14:07.894Z,25.95
2018-08-10T10:15:07.922Z,25.95
2018-08-10T10:16:07.944Z,25.93
2018-08-10T10:17:07.967Z,25.84
2018-08-10T10:18:07.993Z,26.05
2018-08-10T10:19:08.016Z,25.80
2018-08-10T10:20:08.043Z,25.88
2018-08-10T10:21:08.133Z,25.87
2018-08-10T10:22:08.085Z,25.51
2018-08-10T10:23:08.106Z,25.62
2018-08-10T10:24:08.133Z,25.47
2018-08-10T10:25:08.153Z,25.06
2018-08-10T10:26:08.179Z,25.23
2018-08-10T10:27:08.243Z,25.31
2018-08-10T10:28:08.226Z,25.55
2018-08-10T10:29:08.248Z,25.75
2018-08-10T10:30:08.275Z,25.81
2018-08-10T10:31:08.296Z,26.09
2018-08-10T10:32:08.321Z,26.38
2018-08-10T10:33:08.343Z,26.38
2018-08-10T10:34:08.369Z,26.13
2018-08-10T10:35:08.410Z,26.23
2018-08-10T10:36:08.414Z,26.41
2018-08-10T10:37:08.440Z,26.62
2018-08-10T10:38:08.462Z,26.37
2018-08-10T10:39:08.503Z,26.47
2018-08-10T10:40:08.509Z,26.47
2018-08-10T10:41:08.535Z,26.60
2018-08-10T10:42:08.557Z,26.41
2018-08-10T10:43:08.580Z,26.06
2018-08-10T10:44:08.615Z,26.29
2018-08-10T10:45:08.624Z,26.09
2018-08-10T10:46:08.647Z,26.40
2018-08-10T10:47:08.672Z,26.21
2018-08-10T10:48:08.698Z,25.93
2018-08-10T10:49:08.722Z,26.19
2018-08-10T10:50:08.745Z,26.34
2018-08-10T10:51:08.770Z,26.33
2018-08-10T10:52:08.788Z,26.56
2018-08-10T10:53:08.818Z,26.19
2018-08-10T10:54:08.838Z,25.91
2018-08-10T10:55:08.861Z,26.07
2018-08-10T10:56:08.893Z,26.41
2018-08-10T10:57:08.910Z,26.51
2018-08-10T10:58:08.944Z,26.18
2018-08-10T10:59:08.957Z,26.06
2018-08-10T11:00:08.978Z,25.95
2018-08-10T11:01:09.003Z,26.44
2018-08-10T11:02:09.024Z,26.33
2018-08-10T11:03:09.071Z,26.63
2018-08-10T11:04:09.072Z,26.62
2018-08-10T11:05:09.101Z,26.56
2018-08-10T11:06:09.122Z,26.66
2018-08-10T11:07:09.141Z,26.68
2018-08-10T11:08:09.171Z,26.02
2018-08-10T11:09:09.189Z,26.03
2018-08-10T11:10:09.214Z,25.91
2018-08-10T11:11:09.245Z,25.98
2018-08-10T11:12:09.263Z,26.48
2018-08-10T11:13:09.283Z,26.47
2018-08-10T11:14:09.307Z,26.25
2018-08-10T11:15:09.331Z,25.83
2018-08-10T11:16:09.354Z,25.75
2018-08-10T11:17:09.380Z,25.77
2018-08-10T11:18:09.495Z,25.75
2018-08-10T11:19:09.425Z,25.69
2018-08-10T11:20:09.458Z,26.06
2018-08-10T11:21:09.473Z,26.29
2018-08-10T11:22:09.497Z,26.66
2018-08-10T11:23:09.520Z,26.65
2018-08-10T11:24:09.613Z,26.66
2018-08-10T11:25:09.627Z,26.73
2018-08-10T11:26:09.739Z,26.68
2018-08-10T11:27:09.612Z,26.77
2018-08-10T11:28:09.639Z,26.80
2018-08-10T11:29:09.663Z,26.99
2018-08-10T11:30:09.697Z,27.22
2018-08-10T11:31:09.715Z,27.48
2018-08-10T11:32:09.799Z,27.51
2018-08-10T11:33:09.756Z,27.51
2018-08-10T11:34:09.790Z,27.47
2018-08-10T11:35:09.807Z,27.39
2018-08-10T11:36:09.870Z,27.15
2018-08-10T11:37:09.857Z,26.93
2018-08-10T11:38:09.877Z,27.08
2018-08-10T11:39:09.901Z,26.81
2018-08-10T11:40:09.928Z,26.97
2018-08-10T11:41:09.948Z,27.08
2018-08-10T11:42:09.970Z,27.36
2018-08-10T11:43:09.995Z,27.59
2018-08-10T11:44:10.023Z,27.18
2018-08-10T11:45:10.066Z,27.58
2018-08-10T11:46:10.073Z,27.29
2018-08-10T11:47:10.091Z,26.84
2018-08-10T11:48:10.119Z,27.07
2018-08-10T11:49:10.141Z,27.37
2018-08-10T11:50:10.251Z,27.36
2018-08-10T11:51:10.195Z,27.35
2018-08-10T11:52:10.209Z,27.36
2018-08-10T11:53:10.240Z,27.47
2018-08-10T11:54:10.263Z,27.25
2018-08-10T11:55:10.283Z,27.07
2018-08-10T11:56:10.305Z,27.03
2018-08-10T11:57:10.327Z,26.99
2018-08-10T11:58:10.353Z,27.52
2018-08-10T11:59:10.380Z,28.00
2018-08-10T12:00:10.403Z,27.90
2018-08-10T12:01:10.423Z,28.12
2018-08-10T12:02:10.451Z,27.74
2018-08-10T12:03:10.481Z,28.07
2018-08-10T12:04:10.497Z,28.33
2018-08-10T12:05:10.520Z,28.52
2018-08-10T12:06:10.558Z,28.70
2018-08-10T12:07:10.569Z,28.69
2018-08-10T12:08:10.594Z,28.49
2018-08-10T12:09:10.619Z,28.52
2018-08-10T12:10:10.642Z,28.48
2018-08-10T12:11:10.665Z,28.14
2018-08-10T12:12:10.692Z,27.82
2018-08-10T12:13:10.725Z,27.85
2018-08-10T12:14:10.737Z,28.10
2018-08-10T12:15:10.763Z,28.26
2018-08-10T12:16:10.789Z,28.02
2018-08-10T12:17:10.810Z,28.26
2018-08-10T12:18:10.837Z,28.12
2018-08-10T12:19:10.925Z,28.10
2018-08-10T12:20:10.886Z,28.00
2018-08-10T12:21:10.911Z,27.85
2018-08-10T12:22:10.931Z,28.12
2018-08-10T12:23:10.962Z,27.98
2018-08-10T12:24:10.980Z,27.93
2018-08-10T12:25:11.010Z,27.51
2018-08-10T12:26:11.030Z,27.18
2018-08-10T12:27:11.055Z,27.65
2018-08-10T12:28:11.083Z,28.02
2018-08-10T12:29:11.104Z,27.98
2018-08-10T12:30:11.183Z,28.37
2018-08-10T12:31:11.152Z,28.35
2018-08-10T12:32:11.178Z,28.57
2018-08-10T12:33:11.201Z,28.11
2018-08-10T12:34:11.228Z,28.17
2018-08-10T12:35:11.304Z,28.44
2018-08-10T12:36:11.275Z,28.76
2018-08-10T12:37:11.301Z,28.81
2018-08-10T12:38:11.321Z,28.89
2018-08-10T12:39:11.356Z,29.36
2018-08-10T12:40:11.372Z,29.44
2018-08-10T12:41:11.394Z,29.08
2018-08-10T12:42:11.416Z,28.63
2018-08-10T12:43:11.447Z,28.57
2018-08-10T12:44:11.467Z,28.56
2018-08-10T12:45:11.492Z,28.84
2018-08-10T12:46:11.515Z,28.84
2018-08-10T12:47:11.542Z,28.81
2018-08-10T12:48:11.567Z,29.13
2018-08-10T12:49:11.603Z,29.38
2018-08-10T12:50:11.680Z,29.24
2018-08-10T12:51:11.638Z,28.67
2018-08-10T12:52:11.663Z,28.23
2018-08-10T12:53:11.686Z,27.70